createdAt,value
2023-04-23T00:00:24.755Z,13.70
2023-04-23T00:04:28.892Z,9.88
2023-04-23T00:08:31.665Z,13.25
2023-04-23T00:12:33.670Z,9.88
2023-04-23T00:16:35.479Z,12.40
2023-04-23T00:20:37.245Z,8.68
2023-04-23T00:24:39.348Z,11.57
2023-04-23T00:28:41.047Z,10.60
2023-04-23T00:32:43.050Z,11.65
2023-04-23T00:36:44.653Z,10.70
2023-04-23T00:40:46.143Z,13.30
2023-04-23T00:44:48.752Z,10.50
2023-04-23T00:48:51.072Z,10.55
2023-04-23T00:52:52.656Z,9.73
2023-04-23T00:56:55.614Z,10.23
2023-04-23T01:00:57.871Z,11.23
2023-04-23T01:05:01.774Z,10.98
2023-04-23T01:09:03.635Z,9.18
2023-04-23T01:13:05.281Z,10.20
2023-04-23T01:17:08.747Z,11.73
2023-04-23T01:21:12.127Z,12.38
2023-04-23T01:25:13.749Z,11.43
2023-04-23T01:29:15.884Z,10.43
2023-04-23T01:33:18.425Z,13.93
2023-04-23T01:37:20.279Z,10.30
2023-04-23T01:41:22.191Z,14.57
2023-04-23T01:45:24.237Z,13.25
2023-04-23T01:49:25.832Z,9.68
2023-04-23T01:53:27.237Z,12.48
2023-04-23T01:57:28.655Z,14.57
2023-04-23T02:01:46.874Z,13.43
2023-04-23T02:05:49.773Z,14.02
2023-04-23T02:09:51.701Z,17.23
2023-04-23T02:13:53.190Z,11.68
2023-04-23T02:17:54.802Z,13.32
2023-04-23T02:21:56.255Z,13.55
2023-04-23T02:25:57.714Z,11.70
2023-04-23T02:29:59.906Z,16.52
2023-04-23T02:34:01.349Z,15.48
2023-04-23T02:38:02.870Z,12.38
2023-04-23T02:42:04.697Z,16.58
2023-04-23T02:46:09.532Z,13.27
2023-04-23T02:50:11.344Z,14.52
2023-04-23T02:54:13.517Z,18.40
2023-04-23T02:58:15.071Z,14.75
2023-04-23T03:02:16.984Z,18.88
2023-04-23T03:06:18.610Z,16.08
2023-04-23T03:10:20.063Z,17.10
2023-04-23T03:14:21.549Z,16.50
2023-04-23T03:18:23.223Z,19.67
2023-04-23T03:22:24.962Z,15.60
2023-04-23T03:26:26.426Z,18.58
2023-04-23T03:30:29.079Z,17.58
2023-04-23T03:34:30.637Z,21.42
2023-04-23T03:38:32.262Z,18.45
2023-04-23T03:42:34.190Z,19.35
2023-04-23T03:46:35.908Z,14.35
2023-04-23T03:50:40.528Z,18.88
2023-04-23T03:54:42.158Z,16.85
2023-04-23T03:58:43.729Z,18.02
2023-04-23T04:02:45.277Z,15.40
2023-04-23T04:06:46.774Z,18.60
2023-04-23T04:10:48.237Z,18.70
2023-04-23T04:14:49.694Z,21.35
2023-04-23T04:18:51.181Z,15.55
2023-04-23T04:22:52.619Z,21.08
2023-04-23T04:26:54.085Z,16.80
2023-04-23T04:30:57.498Z,13.82
2023-04-23T04:34:58.932Z,14.80
2023-04-23T04:39:00.614Z,17.38
2023-04-23T04:43:02.059Z,17.30
2023-04-23T04:47:03.647Z,14.52
2023-04-23T04:51:05.521Z,15.32
2023-04-23T04:55:07.316Z,15.23
2023-04-23T04:59:08.781Z,15.75
2023-04-23T05:03:12.465Z,14.85
2023-04-23T05:07:15.540Z,12.00
2023-04-23T05:11:18.656Z,14.73
2023-04-23T05:15:20.359Z,16.50
2023-04-23T05:19:21.854Z,14.07
2023-04-23T05:23:23.460Z,13.75
2023-04-23T05:27:25.115Z,13.20
2023-04-23T05:31:29.205Z,14.60
2023-04-23T05:35:31.937Z,16.30
2023-04-23T05:39:33.608Z,12.18
2023-04-23T05:43:35.109Z,13.05
2023-04-23T05:47:36.821Z,11.75
2023-04-23T05:51:38.553Z,14.77
2023-04-23T05:55:40.089Z,13.38
2023-04-23T05:59:41.615Z,12.90
2023-04-23T06:03:45.538Z,11.20
2023-04-23T06:07:47.205Z,9.93
2023-04-23T06:11:50.518Z,10.68
2023-04-23T06:15:52.048Z,11.43
2023-04-23T06:19:53.553Z,10.82
2023-04-23T06:23:56.931Z,10.13
2023-04-23T06:27:58.386Z,8.88
2023-04-23T06:32:03.425Z,9.52
2023-04-23T06:36:06.319Z,10.13
2023-04-23T06:40:08.263Z,9.80
2023-04-23T06:44:09.766Z,8.88
2023-04-23T06:48:11.365Z,10.70
2023-04-23T06:52:12.923Z,8.20
2023-04-23T06:56:14.634Z,6.85
2023-04-23T07:00:16.349Z,8.18
2023-04-23T07:04:17.845Z,10.15
2023-04-23T07:08:20.997Z,14.30
2023-04-23T07:12:22.525Z,11.65
2023-04-23T07:16:25.941Z,10.73
2023-04-23T07:20:27.416Z,13.70
2023-04-23T07:24:31.883Z,10.80
2023-04-23T07:28:33.359Z,14.50
2023-04-23T07:32:36.032Z,10.45
2023-04-23T07:36:37.674Z,9.77
2023-04-23T07:40:39.409Z,9.32
2023-04-23T07:44:41.027Z,10.68
2023-04-23T07:48:42.468Z,9.77
2023-04-23T07:52:43.946Z,10.68
2023-04-23T07:56:45.430Z,10.88
2023-04-23T08:00:46.990Z,16.27
2023-04-23T08:04:48.663Z,9.85
2023-04-23T08:08:50.600Z,11.60
2023-04-23T08:12:52.133Z,7.65
2023-04-23T08:16:53.862Z,9.02
2023-04-23T08:20:56.836Z,10.50
2023-04-23T08:24:58.422Z,9.52
2023-04-23T08:29:03.170Z,10.13
2023-04-23T08:33:05.055Z,8.13
2023-04-23T08:37:11.733Z,9.82
2023-04-23T08:41:19.257Z,6.28
2023-04-23T08:45:21.769Z,9.48
2023-04-23T08:49:24.063Z,9.80
2023-04-23T08:53:28.108Z,9.98
2023-04-23T08:57:30.886Z,7.75
2023-04-23T09:01:32.450Z,10.40
2023-04-23T09:05:34.104Z,7.47
2023-04-23T09:09:37.783Z,10.20
2023-04-23T09:13:41.439Z,8.57
2023-04-23T09:17:45.948Z,9.90
2023-04-23T09:21:47.540Z,7.57
2023-04-23T09:25:49.041Z,7.38
2023-04-23T09:29:53.109Z,6.25
2023-04-23T09:33:56.264Z,10.15
2023-04-23T09:37:57.814Z,9.38
2023-04-23T09:42:04.291Z,10.73
2023-04-23T09:46:06.022Z,8.75
2023-04-23T09:50:11.874Z,9.90
2023-04-23T09:54:20.736Z,8.32
2023-04-23T09:58:26.043Z,7.87
2023-04-23T10:02:29.214Z,5.90
2023-04-23T10:06:44.403Z,8.13
2023-04-23T10:11:05.966Z,5.30
2023-04-23T10:15:13.061Z,7.22
2023-04-23T10:19:20.641Z,7.78
2023-04-23T10:23:23.725Z,7.88
2023-04-23T10:27:48.668Z,7.95
2023-04-23T10:31:53.219Z,8.35
2023-04-23T10:35:57.232Z,8.60
2023-04-23T10:40:05.436Z,11.48
2023-04-23T10:44:11.085Z,12.25
2023-04-23T10:48:12.687Z,18.27
2023-04-23T10:52:21.663Z,16.00
2023-04-23T10:56:30.591Z,10.32
2023-04-23T11:00:53.567Z,15.30
2023-04-23T11:04:57.405Z,15.30
2023-04-23T11:08:59.154Z,13.73
2023-04-23T11:13:22.985Z,10.48
2023-04-23T11:17:33.579Z,8.60
2023-04-23T11:21:59.865Z,8.10
2023-04-23T11:26:02.167Z,9.38
2023-04-23T11:30:04.133Z,8.48
2023-04-23T11:34:05.868Z,7.75
2023-04-23T11:38:11.143Z,7.95
2023-04-23T11:42:14.028Z,5.00
2023-04-23T11:46:16.846Z,7.20
2023-04-23T11:50:20.310Z,4.40
2023-04-23T11:54:27.591Z,5.97
2023-04-23T11:58:32.262Z,7.07
2023-04-23T12:02:33.743Z,6.97
2023-04-23T12:06:44.998Z,6.63
2023-04-23T12:10:46.504Z,6.40
2023-04-23T12:14:47.963Z,6.18
2023-04-23T12:18:54.038Z,4.30
2023-04-23T12:22:56.465Z,4.10
2023-04-23T12:27:02.748Z,2.92
2023-04-23T12:31:04.557Z,2.78
2023-04-23T12:35:06.608Z,2.70
2023-04-23T12:39:31.955Z,5.85
2023-04-23T12:43:33.365Z,3.50
2023-04-23T12:47:35.141Z,2.50
2023-04-23T12:51:36.733Z,1.75
2023-04-23T12:55:43.069Z,4.60
2023-04-23T12:59:44.786Z,2.20
2023-04-23T13:03:46.805Z,2.70
2023-04-23T13:07:48.367Z,2.85
2023-04-23T13:11:50.549Z,1.92
2023-04-23T13:15:52.093Z,2.67
2023-04-23T13:19:57.090Z,2.40
2023-04-23T13:23:58.647Z,3.33
2023-04-23T13:28:00.322Z,4.50
2023-04-23T13:32:01.833Z,3.72
2023-04-23T13:36:03.656Z,2.67
2023-04-23T13:40:05.793Z,2.50
2023-04-23T13:44:07.620Z,4.22
2023-04-23T13:48:09.309Z,3.08
2023-04-23T13:52:10.829Z,3.00
2023-04-23T13:56:12.610Z,5.70
2023-04-23T14:00:14.614Z,4.32
2023-04-23T14:04:16.806Z,3.35
2023-04-23T14:08:18.254Z,2.63
2023-04-23T14:12:20.181Z,4.22
2023-04-23T14:16:21.762Z,3.40
2023-04-23T14:20:23.320Z,2.50
2023-04-23T14:24:29.647Z,2.65
2023-04-23T14:28:45.176Z,6.32
2023-04-23T14:32:49.681Z,2.63
2023-04-23T14:36:53.266Z,3.22
2023-04-23T14:40:55.735Z,3.25
2023-04-23T14:45:00.230Z,2.70
2023-04-23T14:49:01.706Z,2.53
2023-04-23T14:53:06.972Z,3.58
2023-04-23T14:57:08.486Z,3.00
2023-04-23T15:01:10.179Z,3.08
2023-04-23T15:05:12.256Z,3.60
2023-04-23T15:09:13.716Z,2.97
2023-04-23T15:13:15.278Z,3.83
2023-04-23T15:17:17.476Z,3.53
2023-04-23T15:21:18.982Z,2.50
2023-04-23T15:25:20.599Z,3.38
2023-04-23T15:29:24.285Z,2.47
2023-04-23T15:33:25.814Z,4.00
2023-04-23T15:37:27.961Z,2.33
2023-04-23T15:41:29.468Z,2.50
2023-04-23T15:45:31.029Z,2.20
2023-04-23T15:49:32.659Z,2.00
2023-04-23T15:53:34.150Z,3.08
2023-04-23T15:57:35.578Z,2.65
2023-04-23T16:01:37.192Z,2.53
2023-04-23T16:05:38.710Z,2.97
2023-04-23T16:09:40.396Z,2.15
2023-04-23T16:13:42.254Z,2.63
2023-04-23T16:17:43.784Z,4.18
2023-04-23T16:21:45.583Z,3.00
2023-04-23T16:25:47.154Z,4.65
2023-04-23T16:29:48.807Z,3.47
2023-04-23T16:33:50.593Z,4.82
2023-04-23T16:37:52.119Z,2.25
2023-04-23T16:41:53.737Z,2.80
2023-04-23T16:45:55.421Z,4.03
2023-04-23T16:49:56.972Z,2.60
2023-04-23T16:53:58.604Z,4.95
2023-04-23T16:58:00.151Z,2.55
2023-04-23T17:02:01.724Z,2.72
2023-04-23T17:06:18.607Z,2.67
2023-04-23T17:10:20.102Z,3.05
2023-04-23T17:14:21.689Z,2.13
2023-04-23T17:18:23.314Z,3.33
2023-04-23T17:22:25.670Z,4.00
2023-04-23T17:26:27.174Z,4.85
2023-04-23T17:30:28.676Z,2.55
2023-04-23T17:34:30.203Z,3.20
2023-04-23T17:38:31.729Z,2.28
2023-04-23T17:42:33.342Z,4.50
2023-04-23T17:46:34.792Z,3.60
2023-04-23T17:50:36.803Z,3.30
2023-04-23T17:54:38.292Z,2.63
2023-04-23T17:58:39.678Z,3.75
2023-04-23T18:02:41.807Z,4.38
2023-04-23T18:06:43.384Z,6.75
2023-04-23T18:10:45.848Z,7.07
2023-04-23T18:14:47.366Z,5.07
2023-04-23T18:18:49.391Z,4.72
2023-04-23T18:22:50.893Z,4.70
2023-04-23T18:26:54.268Z,3.70
2023-04-23T18:31:02.123Z,6.20
2023-04-23T18:35:04.184Z,6.38
2023-04-23T18:39:08.011Z,8.00
2023-04-23T18:43:09.459Z,10.27
2023-04-23T18:47:11.061Z,6.32
2023-04-23T18:51:29.263Z,5.05
2023-04-23T18:55:31.078Z,8.10
2023-04-23T18:59:35.797Z,7.45
2023-04-23T19:03:37.598Z,6.32
2023-04-23T19:07:41.203Z,7.78
2023-04-23T19:11:42.686Z,6.85
2023-04-23T19:15:44.552Z,6.82
2023-04-23T19:19:46.180Z,5.93
2023-04-23T19:23:47.730Z,7.30
2023-04-23T19:27:49.606Z,7.97
2023-04-23T19:31:51.133Z,8.23
2023-04-23T19:35:54.220Z,11.80
2023-04-23T19:39:57.295Z,9.75
2023-04-23T19:43:58.855Z,10.00
2023-04-23T19:48:01.056Z,12.43
2023-04-23T19:52:04.096Z,8.98
2023-04-23T19:56:10.838Z,6.90
2023-04-23T20:00:14.349Z,11.07
2023-04-23T20:04:16.053Z,9.00
2023-04-23T20:08:26.102Z,10.50
2023-04-23T20:12:29.857Z,10.15
2023-04-23T20:16:31.484Z,9.27
2023-04-23T20:20:35.588Z,8.77
2023-04-23T20:24:40.210Z,10.05
2023-04-23T20:28:41.749Z,8.65
2023-04-23T20:32:43.278Z,8.98
2023-04-23T20:36:47.014Z,6.82
2023-04-23T20:40:50.129Z,8.40
2023-04-23T20:44:52.235Z,6.32
2023-04-23T20:48:55.110Z,8.52
2023-04-23T20:52:56.632Z,6.53
2023-04-23T20:56:58.619Z,8.27
2023-04-23T21:01:00.282Z,5.60
2023-04-23T21:05:01.826Z,6.57
2023-04-23T21:09:04.568Z,6.00
2023-04-23T21:13:08.339Z,10.93
2023-04-23T21:17:10.527Z,7.15
2023-04-23T21:21:12.041Z,5.32
2023-04-23T21:25:13.525Z,6.82
2023-04-23T21:29:16.428Z,8.57
2023-04-23T21:33:23.413Z,8.13
2023-04-23T21:37:24.866Z,9.50
2023-04-23T21:41:26.335Z,6.07
2023-04-23T21:45:28.217Z,6.57
2023-04-23T21:49:29.683Z,6.15
2023-04-23T21:53:31.151Z,6.00
2023-04-23T21:57:33.739Z,6.78
2023-04-23T22:01:36.774Z,5.43
2023-04-23T22:05:38.522Z,7.22
2023-04-23T22:09:41.563Z,6.55
2023-04-23T22:13:43.336Z,6.03
2023-04-23T22:17:47.802Z,5.40
2023-04-23T22:21:49.247Z,6.50
2023-04-23T22:25:50.826Z,4.35
2023-04-23T22:29:52.465Z,5.93
2023-04-23T22:33:53.907Z,4.95
2023-04-23T22:37:55.689Z,4.97
2023-04-23T22:41:57.366Z,6.90
2023-04-23T22:45:58.945Z,7.72
2023-04-23T22:50:00.479Z,5.25
2023-04-23T22:54:01.928Z,4.97
2023-04-23T22:58:03.423Z,6.95
2023-04-23T23:02:05.160Z,5.75
2023-04-23T23:06:06.928Z,5.45
2023-04-23T23:10:09.444Z,5.60
2023-04-23T23:14:11.356Z,6.15
2023-04-23T23:18:12.795Z,5.80
2023-04-23T23:22:14.227Z,5.72
2023-04-23T23:26:15.814Z,5.78
2023-04-23T23:30:17.399Z,7.25
2023-04-23T23:34:18.918Z,6.20
2023-04-23T23:38:20.880Z,8.30
2023-04-23T23:42:22.461Z,5.55
2023-04-23T23:46:24.049Z,6.75
2023-04-23T23:50:26.365Z,8.77
2023-04-23T23:54:27.863Z,7.65
2023-04-23T23:58:29.557Z,5.75
